createdAt,value
2018-05-10T00:02:22.451Z,96919.92
2018-05-10T00:04:50.175Z,96919.19
2018-05-10T00:07:17.802Z,96916.09
2018-05-10T00:09:45.396Z,96914.91
2018-05-10T00:12:13.010Z,96916.28
2018-05-10T00:14:40.608Z,96915.52
2018-05-10T00:17:08.253Z,96913.66
2018-05-10T00:19:35.862Z,96910.26
2018-05-10T00:22:03.534Z,96910.76
2018-05-10T00:24:31.102Z,96909.34
2018-05-10T00:26:58.702Z,96915.41
2018-05-10T00:29:26.553Z,96914.40
2018-05-10T00:31:54.153Z,96909.86
2018-05-10T00:34:21.783Z,96908.56
2018-05-10T00:36:49.379Z,96906.00
2018-05-10T00:39:16.970Z,96911.59
2018-05-10T00:41:44.591Z,96913.47
2018-05-10T00:44:12.191Z,96920.63
2018-05-10T00:46:39.808Z,96920.47
2018-05-10T00:49:07.405Z,96916.34
2018-05-10T00:51:35.038Z,96918.42
2018-05-10T00:54:02.629Z,96923.59
2018-05-10T00:56:30.242Z,96921.50
2018-05-10T00:58:57.860Z,96915.31
2018-05-10T01:01:25.470Z,96922.44
2018-05-10T01:03:53.222Z,96920.77
2018-05-10T01:06:20.838Z,96922.85
2018-05-10T01:08:48.429Z,96919.25
2018-05-10T01:11:16.055Z,96919.88
2018-05-10T01:13:43.656Z,96927.66
2018-05-10T01:16:11.277Z,96924.64
2018-05-10T01:18:38.867Z,96920.66
2018-05-10T01:21:06.486Z,96916.39
2018-05-10T01:23:34.083Z,96917.90
2018-05-10T01:26:01.730Z,96919.16
2018-05-10T01:28:29.326Z,96913.16
2018-05-10T01:30:56.927Z,96915.48
2018-05-10T01:33:24.546Z,96913.02
2018-05-10T01:36:03.830Z,96916.95
2018-05-10T01:38:31.614Z,96912.61
2018-05-10T01:40:59.208Z,96907.92
2018-05-10T01:43:26.831Z,96905.70
2018-05-10T01:45:54.423Z,96905.53
2018-05-10T01:48:22.019Z,96902.95
2018-05-10T01:50:49.638Z,96896.24
2018-05-10T01:53:17.243Z,96900.35
2018-05-10T01:55:45.034Z,96900.39
2018-05-10T01:58:12.638Z,96899.75
2018-05-10T02:00:40.588Z,96897.86
2018-05-10T02:03:08.182Z,96898.75
2018-05-10T02:05:35.778Z,96904.53
2018-05-10T02:08:03.401Z,96908.28
2018-05-10T02:10:31.051Z,96905.96
2018-05-10T02:12:58.684Z,96905.61
2018-05-10T02:15:26.291Z,96907.24
2018-05-10T02:17:53.929Z,96914.20
2018-05-10T02:20:21.631Z,96909.03
2018-05-10T02:22:49.218Z,96910.17
2018-05-10T02:25:16.830Z,96910.74
2018-05-10T02:27:44.431Z,96908.50
2018-05-10T02:30:12.053Z,96909.11
2018-05-10T02:32:39.642Z,96919.17
2018-05-10T02:35:07.376Z,96917.70
2018-05-10T02:37:35.067Z,96921.45
2018-05-10T02:40:02.694Z,96919.48
2018-05-10T02:42:30.318Z,96925.88
2018-05-10T02:44:57.941Z,96924.13
2018-05-10T02:47:25.566Z,96922.30
2018-05-10T02:49:53.167Z,96916.16
2018-05-10T02:52:21.238Z,96918.95
2018-05-10T02:54:48.902Z,96920.66
2018-05-10T02:57:16.505Z,96924.16
2018-05-10T02:59:44.130Z,96933.64
2018-05-10T03:02:11.724Z,96931.25
2018-05-10T03:04:39.338Z,96923.92
2018-05-10T03:07:06.945Z,96929.97
2018-05-10T03:09:34.588Z,96926.53
2018-05-10T03:12:02.236Z,96920.91
2018-05-10T03:14:29.832Z,96927.28
2018-05-10T03:16:57.452Z,96928.00
2018-05-10T03:19:25.042Z,96930.03
2018-05-10T03:21:52.662Z,96932.47
2018-05-10T03:24:20.271Z,96931.68
2018-05-10T03:26:48.103Z,96932.23
2018-05-10T03:29:15.702Z,96933.91
2018-05-10T03:31:43.310Z,96938.34
2018-05-10T03:34:10.943Z,96939.97
2018-05-10T03:36:38.560Z,96938.34
2018-05-10T03:39:06.204Z,96940.37
2018-05-10T03:41:33.806Z,96944.53
2018-05-10T03:44:01.566Z,96944.89
2018-05-10T03:46:29.186Z,96941.69
2018-05-10T03:48:56.769Z,96953.49
2018-05-10T03:51:24.428Z,96953.64
2018-05-10T03:53:52.016Z,96944.45
2018-05-10T03:56:19.634Z,96947.48
2018-05-10T03:58:47.230Z,96947.48
2018-05-10T04:01:15.070Z,96955.81
2018-05-10T04:03:54.291Z,96956.54
2018-05-10T04:06:33.949Z,96956.99
2018-05-10T04:09:15.036Z,96959.27
2018-05-10T04:11:42.791Z,96948.62
2018-05-10T04:14:10.378Z,96950.14
2018-05-10T04:16:37.967Z,96956.64
2018-05-10T04:19:05.596Z,96956.92
2018-05-10T04:21:33.215Z,96960.53
2018-05-10T04:24:00.826Z,96968.95
2018-05-10T04:26:28.428Z,96967.48
2018-05-10T04:28:56.386Z,96962.72
2018-05-10T04:31:23.974Z,96966.77
2018-05-10T04:33:51.557Z,96958.89
2018-05-10T04:36:19.172Z,96966.72
2018-05-10T04:38:47.194Z,96958.49
2018-05-10T04:41:14.802Z,96954.27
2018-05-10T04:43:42.392Z,96953.45
2018-05-10T04:46:10.348Z,96957.45
2018-05-10T04:48:37.942Z,96960.06
2018-05-10T04:51:05.534Z,96965.09
2018-05-10T04:53:33.163Z,96967.14
2018-05-10T04:56:00.758Z,96968.94
2018-05-10T04:58:28.371Z,96959.69
2018-05-10T05:00:55.980Z,96967.84
2018-05-10T05:03:24.208Z,96968.55
2018-05-10T05:05:52.639Z,96970.66
2018-05-10T05:08:20.230Z,96976.52
2018-05-10T05:10:47.843Z,96983.45
2018-05-10T05:13:15.448Z,96979.02
2018-05-10T05:15:43.066Z,96975.77
2018-05-10T05:18:10.656Z,96983.13
2018-05-10T05:20:38.537Z,96985.31
2018-05-10T05:23:06.134Z,96985.38
2018-05-10T05:25:33.727Z,96990.05
2018-05-10T05:28:01.339Z,96985.95
2018-05-10T05:30:28.932Z,96981.33
2018-05-10T05:32:56.586Z,96985.41
2018-05-10T05:35:24.184Z,96988.63
2018-05-10T05:37:51.781Z,96992.16
2018-05-10T05:40:19.399Z,96995.52
2018-05-10T05:42:46.990Z,96992.94
2018-05-10T05:45:14.898Z,96995.38
2018-05-10T05:47:42.488Z,96996.44
2018-05-10T05:50:10.073Z,96995.69
2018-05-10T05:52:37.691Z,97004.27
2018-05-10T05:55:05.357Z,97002.55
2018-05-10T05:57:32.942Z,97008.02
2018-05-10T06:00:00.531Z,97006.23
2018-05-10T06:02:28.332Z,97007.48
2018-05-10T06:04:55.928Z,97013.23
2018-05-10T06:07:23.525Z,97013.78
2018-05-10T06:09:51.159Z,97022.10
2018-05-10T06:12:18.758Z,97021.87
2018-05-10T06:14:46.367Z,97030.56
2018-05-10T06:17:13.968Z,97022.57
2018-05-10T06:19:41.857Z,97022.05
2018-05-10T06:22:09.446Z,97027.25
2018-05-10T06:24:37.036Z,97031.44
2018-05-10T06:27:04.649Z,97031.27
2018-05-10T06:29:32.244Z,97033.69
2018-05-10T06:31:59.964Z,97026.73
2018-05-10T06:34:27.562Z,97030.02
2018-05-10T06:36:55.304Z,97031.61
2018-05-10T06:39:22.899Z,97032.94
2018-05-10T06:41:50.487Z,97033.59
2018-05-10T06:44:18.099Z,97030.59
2018-05-10T06:46:46.666Z,97035.66
2018-05-10T06:49:14.300Z,97039.61
2018-05-10T06:51:41.897Z,97040.66
2018-05-10T06:54:09.534Z,97048.33
2018-05-10T06:56:37.128Z,97048.57
2018-05-10T06:59:04.727Z,97050.28
2018-05-10T07:01:32.353Z,97051.55
2018-05-10T07:03:59.962Z,97055.92
2018-05-10T07:06:27.581Z,97060.45
2018-05-10T07:08:55.175Z,97058.23
2018-05-10T07:11:23.095Z,97057.77
2018-05-10T07:13:50.688Z,97057.81
2018-05-10T07:16:18.290Z,97063.27
2018-05-10T07:18:45.926Z,97057.56
2018-05-10T07:21:13.523Z,97053.92
2018-05-10T07:23:41.147Z,97065.64
2018-05-10T07:26:08.742Z,97071.41
2018-05-10T07:28:36.630Z,97070.55
2018-05-10T07:31:04.218Z,97072.03
2018-05-10T07:33:31.830Z,97074.73
2018-05-10T07:35:59.461Z,97080.76
2018-05-10T07:38:27.054Z,97082.97
2018-05-10T07:40:54.667Z,97079.92
2018-05-10T07:43:22.265Z,97079.55
2018-05-10T07:45:50.059Z,97074.16
2018-05-10T07:48:17.656Z,97075.07
2018-05-10T07:50:45.289Z,97075.34
2018-05-10T07:53:12.954Z,97083.36
2018-05-10T07:55:40.505Z,97081.51
2018-05-10T07:58:08.126Z,97078.72
2018-05-10T08:00:35.767Z,97087.95
2018-05-10T08:03:03.405Z,97085.88
2018-05-10T08:05:31.023Z,97089.00
2018-05-10T08:07:58.631Z,97099.17
2018-05-10T08:10:26.241Z,97090.77
2018-05-10T08:12:53.831Z,97094.16
2018-05-10T08:15:22.289Z,97095.33
2018-05-10T08:17:49.986Z,97102.52
2018-05-10T08:20:17.849Z,97098.65
2018-05-10T08:22:45.711Z,97100.28
2018-05-10T08:25:13.300Z,97104.62
2018-05-10T08:27:46.740Z,97097.86
2018-05-10T08:30:14.354Z,97100.83
2018-05-10T08:32:41.963Z,97094.84
2018-05-10T08:35:09.543Z,97100.62
2018-05-10T08:37:37.319Z,97093.67
2018-05-10T08:40:04.912Z,97097.98
2018-05-10T08:42:32.523Z,97100.77
2018-05-10T08:45:00.193Z,97092.16
2018-05-10T08:47:27.754Z,97095.09
2018-05-10T08:49:55.362Z,97091.97
2018-05-10T08:52:22.987Z,97091.30
2018-05-10T08:54:50.606Z,97098.41
2018-05-10T08:57:18.749Z,97094.52
2018-05-10T08:59:46.357Z,97099.45
2018-05-10T09:02:13.970Z,97102.03
2018-05-10T09:04:41.558Z,97101.05
2018-05-10T09:07:09.169Z,97099.64
2018-05-10T09:09:36.771Z,97102.03
2018-05-10T09:12:04.532Z,97100.83
2018-05-10T09:14:32.119Z,97104.16
2018-05-10T09:16:59.706Z,97104.13
2018-05-10T09:19:27.403Z,97103.95
2018-05-10T09:21:54.983Z,97110.86
2018-05-10T09:24:22.719Z,97108.11
2018-05-10T09:26:50.316Z,97109.66
2018-05-10T09:29:18.003Z,97115.75
2018-05-10T09:31:45.590Z,97107.89
2018-05-10T09:34:13.215Z,97112.81
2018-05-10T09:36:40.873Z,97115.95
2018-05-10T09:39:08.417Z,97117.28
2018-05-10T09:41:36.036Z,97116.28
2018-05-10T09:44:03.633Z,97124.50
2018-05-10T09:46:31.244Z,97122.19
2018-05-10T09:48:58.839Z,97123.94
2018-05-10T09:51:26.429Z,97122.70
2018-05-10T09:53:54.069Z,97121.33
2018-05-10T09:56:22.402Z,97122.53
2018-05-10T09:58:50.166Z,97115.51
2018-05-10T10:01:17.874Z,97122.91
2018-05-10T10:03:45.936Z,97114.61
2018-05-10T10:06:13.662Z,97118.97
2018-05-10T10:08:41.262Z,97113.79
2018-05-10T10:11:08.884Z,97123.17
2018-05-10T10:13:36.473Z,97119.32
2018-05-10T10:16:04.115Z,97110.94
2018-05-10T10:18:31.704Z,97106.64
2018-05-10T10:20:59.287Z,97107.39
2018-05-10T10:23:26.895Z,97112.44
2018-05-10T10:25:54.494Z,97106.96
2018-05-10T10:28:22.110Z,97114.03
2018-05-10T10:30:49.765Z,97120.52
2018-05-10T10:33:17.770Z,97111.69
2018-05-10T10:35:45.355Z,97104.22
2018-05-10T10:38:13.011Z,97105.91
2018-05-10T10:40:40.632Z,97112.50
2018-05-10T10:43:08.231Z,97112.73
2018-05-10T10:45:35.890Z,97109.08
2018-05-10T10:48:03.477Z,97111.94
2018-05-10T10:50:31.446Z,97104.97
2018-05-10T10:52:59.053Z,97106.26
2018-05-10T10:55:26.646Z,97108.11
2018-05-10T10:57:54.262Z,97106.33
2018-05-10T11:00:22.086Z,97109.17
2018-05-10T11:02:49.699Z,97102.43
2018-05-10T11:05:17.313Z,97100.27
2018-05-10T11:07:45.051Z,97104.80
2018-05-10T11:10:13.552Z,97097.63
2018-05-10T11:12:41.138Z,97102.26
2018-05-10T11:15:08.818Z,97104.15
2018-05-10T11:17:36.369Z,97102.94
2018-05-10T11:20:04.008Z,97109.11
2018-05-10T11:22:31.692Z,97119.47
2018-05-10T11:24:59.288Z,97113.56
2018-05-10T11:27:26.928Z,97116.70
2018-05-10T11:29:54.523Z,97119.27
2018-05-10T11:32:22.098Z,97129.45
2018-05-10T11:34:49.729Z,97126.54
2018-05-10T11:37:17.348Z,97128.41
2018-05-10T11:39:44.974Z,97135.22
2018-05-10T11:42:12.591Z,97140.27
2018-05-10T11:44:40.187Z,97143.79
2018-05-10T11:47:07.950Z,97145.15
2018-05-10T11:49:35.544Z,97150.66
2018-05-10T11:52:03.136Z,97155.78
2018-05-10T11:54:30.757Z,97167.35
2018-05-10T11:56:58.345Z,97176.96
2018-05-10T11:59:25.959Z,97190.47
2018-05-10T12:01:53.562Z,97205.75
2018-05-10T12:04:21.202Z,97215.75
2018-05-10T12:06:48.799Z,97237.58
2018-05-10T12:09:16.386Z,97270.23
2018-05-10T12:11:44.014Z,97290.31
2018-05-10T12:14:11.982Z,97290.54
2018-05-10T12:16:39.594Z,97287.94
2018-05-10T12:19:07.201Z,97291.30
2018-05-10T12:21:35.049Z,97292.89
2018-05-10T12:24:02.659Z,97310.78
2018-05-10T12:26:30.853Z,97316.18
2018-05-10T12:28:58.503Z,97324.39
2018-05-10T12:31:26.104Z,97320.95
2018-05-10T12:33:53.713Z,97318.89
2018-05-10T12:36:21.298Z,97327.83
2018-05-10T12:38:48.915Z,97344.09
2018-05-10T12:41:17.107Z,97342.88
2018-05-10T12:43:44.956Z,97359.17
2018-05-10T12:46:12.717Z,97364.82
2018-05-10T12:48:40.402Z,97365.55
2018-05-10T12:51:07.974Z,97374.09
2018-05-10T12:53:35.580Z,97364.48
2018-05-10T12:56:03.174Z,97363.91
2018-05-10T12:58:30.794Z,97372.81
2018-05-10T13:00:58.380Z,97370.38
2018-05-10T13:03:26.001Z,97372.86
2018-05-10T13:05:53.591Z,97373.76
2018-05-10T13:08:21.267Z,97383.14
2018-05-10T13:10:48.829Z,97382.31
2018-05-10T13:13:16.544Z,97397.41
2018-05-10T13:15:44.152Z,97395.53
2018-05-10T13:18:11.746Z,97403.36
2018-05-10T13:20:39.353Z,97403.59
2018-05-10T13:23:06.958Z,97413.47
2018-05-10T13:25:34.702Z,97427.35
2018-05-10T13:28:02.630Z,97433.34
2018-05-10T13:30:30.429Z,97422.71
2018-05-10T13:32:58.143Z,97431.08
2018-05-10T13:35:25.772Z,97430.19
2018-05-10T13:37:53.382Z,97428.77
2018-05-10T13:40:20.980Z,97428.92
2018-05-10T13:42:48.593Z,97430.77
2018-05-10T13:45:16.213Z,97430.06
2018-05-10T13:47:43.818Z,97436.05
2018-05-10T13:50:13.531Z,97435.20
2018-05-10T13:52:41.877Z,97436.52
2018-05-10T13:55:09.483Z,97439.25
2018-05-10T13:57:37.078Z,97438.95
2018-05-10T14:00:04.700Z,97430.52
2018-05-10T14:02:32.288Z,97434.52
2018-05-10T14:04:59.901Z,97436.36
2018-05-10T14:07:27.512Z,97438.29
2018-05-10T14:09:55.143Z,97436.09
2018-05-10T14:12:22.725Z,97437.20
2018-05-10T14:14:50.337Z,97446.22
2018-05-10T14:17:17.959Z,97447.63
2018-05-10T14:19:45.549Z,97444.03
2018-05-10T14:22:13.158Z,97445.43
2018-05-10T14:24:40.745Z,97458.57
2018-05-10T14:27:08.946Z,97456.64
2018-05-10T14:29:36.552Z,97469.27
2018-05-10T14:32:04.135Z,97466.78
2018-05-10T14:34:31.755Z,97468.83
2018-05-10T14:36:59.342Z,97473.02
2018-05-10T14:39:26.978Z,97481.52
2018-05-10T14:41:55.016Z,97485.91
2018-05-10T14:44:22.664Z,97478.94
2018-05-10T14:46:50.325Z,97480.17
2018-05-10T14:49:17.916Z,97484.92
2018-05-10T14:51:45.533Z,97489.65
2018-05-10T14:54:13.121Z,97486.42
2018-05-10T14:56:40.730Z,97497.11
2018-05-10T14:59:08.315Z,97487.84
2018-05-10T15:01:36.188Z,97494.23
2018-05-10T15:04:03.783Z,97498.70
2018-05-10T15:06:31.383Z,97500.28
2018-05-10T15:08:59.104Z,97494.23
2018-05-10T15:11:26.704Z,97504.68
2018-05-10T15:13:54.364Z,97500.33
2018-05-10T15:16:22.072Z,97506.92
2018-05-10T15:18:49.730Z,97507.56
2018-05-10T15:21:17.366Z,97508.91
2018-05-10T15:23:45.073Z,97510.27
2018-05-10T15:26:12.602Z,97516.68
2018-05-10T15:28:40.204Z,97522.42
2018-05-10T15:31:07.910Z,97517.47
2018-05-10T15:33:35.503Z,97509.06
2018-05-10T15:36:03.327Z,97517.73
2018-05-10T15:38:30.935Z,97526.90
2018-05-10T15:40:58.527Z,97540.19
2018-05-10T15:43:26.146Z,97544.92
2018-05-10T15:45:53.761Z,97547.47
2018-05-10T15:48:21.688Z,97542.08
2018-05-10T15:50:49.349Z,97550.59
2018-05-10T15:53:16.947Z,97556.21
2018-05-10T15:55:47.009Z,97562.50
2018-05-10T15:58:14.602Z,97560.55
2018-05-10T16:00:42.225Z,97565.08
2018-05-10T16:03:09.820Z,97564.46
2018-05-10T16:05:37.679Z,97564.16
2018-05-10T16:08:05.267Z,97560.04
2018-05-10T16:10:32.863Z,97553.59
2018-05-10T16:13:00.504Z,97563.46
2018-05-10T16:15:28.105Z,97556.59
2018-05-10T16:17:56.535Z,97557.36
2018-05-10T16:20:24.127Z,97558.98
2018-05-10T16:22:51.744Z,97561.52
2018-05-10T16:25:19.341Z,97561.17
2018-05-10T16:27:47.146Z,97569.61
2018-05-10T16:30:14.747Z,97574.33
2018-05-10T16:32:42.330Z,97577.27
2018-05-10T16:35:09.947Z,97579.58
2018-05-10T16:37:37.535Z,97583.16
2018-05-10T16:40:05.385Z,97585.95
2018-05-10T16:42:32.970Z,97586.56
2018-05-10T16:45:01.198Z,97595.45
2018-05-10T16:47:28.802Z,97601.02
2018-05-10T16:49:56.415Z,97606.16
2018-05-10T16:52:24.023Z,97603.63
2018-05-10T16:54:51.622Z,97606.73
2018-05-10T16:57:19.239Z,97611.59
2018-05-10T16:59:46.839Z,97616.16
2018-05-10T17:02:14.496Z,97618.00
2018-05-10T17:04:42.098Z,97631.20
2018-05-10T17:07:09.724Z,97628.91
2018-05-10T17:09:37.342Z,97642.47
2018-05-10T17:12:04.936Z,97631.97
2018-05-10T17:14:32.577Z,97648.45
2018-05-10T17:17:00.161Z,97649.79
2018-05-10T17:19:27.970Z,97655.11
2018-05-10T17:21:55.577Z,97663.45
2018-05-10T17:24:23.177Z,97654.88
2018-05-10T17:26:50.800Z,97664.39
2018-05-10T17:29:18.395Z,97663.14
2018-05-10T17:31:46.013Z,97676.08
2018-05-10T17:34:13.613Z,97669.67
2018-05-10T17:36:41.625Z,97680.78
2018-05-10T17:39:09.320Z,97682.19
2018-05-10T17:41:37.044Z,97697.45
2018-05-10T17:44:04.609Z,97701.47
2018-05-10T17:46:32.204Z,97711.66
2018-05-10T17:48:59.876Z,97712.27
2018-05-10T17:51:27.484Z,97712.23
2018-05-10T17:53:55.351Z,97718.84
2018-05-10T17:56:22.958Z,97729.30
2018-05-10T17:58:50.549Z,97739.34
2018-05-10T18:01:18.204Z,97747.93
2018-05-10T18:03:45.803Z,97758.05
2018-05-10T18:06:13.422Z,97760.66
2018-05-10T18:08:41.024Z,97761.02
2018-05-10T18:11:08.849Z,97773.26
2018-05-10T18:13:36.549Z,97781.17
2018-05-10T18:16:04.068Z,97789.20
2018-05-10T18:18:31.687Z,97788.95
2018-05-10T18:20:59.278Z,97799.25
2018-05-10T18:23:26.980Z,97803.97
2018-05-10T18:25:54.515Z,97812.40
2018-05-10T18:28:22.151Z,97820.78
2018-05-10T18:30:49.748Z,97816.64
2018-05-10T18:33:17.543Z,97820.73
2018-05-10T18:35:45.095Z,97821.86
2018-05-10T18:38:12.769Z,97825.37
2018-05-10T18:40:40.392Z,97827.82
2018-05-10T18:43:07.994Z,97834.94
2018-05-10T18:45:35.761Z,97829.83
2018-05-10T18:48:03.358Z,97834.66
2018-05-10T18:50:30.980Z,97831.33
2018-05-10T18:52:58.601Z,97835.41
2018-05-10T18:55:26.306Z,97850.50
2018-05-10T18:57:54.319Z,97847.26
2018-05-10T19:00:22.130Z,97854.30
2018-05-10T19:02:49.730Z,97852.28
2018-05-10T19:05:17.331Z,97863.39
2018-05-10T19:07:45.032Z,97864.44
2018-05-10T19:10:12.917Z,97880.81
2018-05-10T19:12:40.544Z,97876.36
2018-05-10T19:15:08.166Z,97883.95
2018-05-10T19:17:35.788Z,97890.73
2018-05-10T19:20:03.395Z,97895.70
2018-05-10T19:22:31.047Z,97903.37
2018-05-10T19:24:58.655Z,97900.44
2018-05-10T19:27:26.301Z,97906.00
2018-05-10T19:29:53.932Z,97913.55
2018-05-10T19:32:21.526Z,97919.59
2018-05-10T19:34:49.219Z,97933.52
2018-05-10T19:37:16.907Z,97942.04
2018-05-10T19:39:44.640Z,97945.45
2018-05-10T19:42:12.242Z,97954.86
2018-05-10T19:44:39.839Z,97961.31
2018-05-10T19:47:07.464Z,97973.08
2018-05-10T19:49:35.078Z,97977.78
2018-05-10T19:52:02.706Z,97981.36
2018-05-10T19:54:30.300Z,97986.91
2018-05-10T19:56:58.224Z,97996.77
2018-05-10T19:59:25.842Z,98002.26
2018-05-10T20:01:53.503Z,98010.58
2018-05-10T20:04:21.122Z,98012.02
2018-05-10T20:06:48.722Z,98011.34
2018-05-10T20:09:16.346Z,98018.80
2018-05-10T20:11:43.947Z,98024.30
2018-05-10T20:14:11.596Z,98037.00
2018-05-10T20:16:39.194Z,98034.38
2018-05-10T20:19:06.784Z,98033.18
2018-05-10T20:21:34.463Z,98039.71
2018-05-10T20:24:02.102Z,98047.23
2018-05-10T20:26:29.723Z,98047.70
2018-05-10T20:28:57.331Z,98055.52
2018-05-10T20:31:25.145Z,98060.70
2018-05-10T20:33:52.742Z,98061.89
2018-05-10T20:36:20.348Z,98062.22
2018-05-10T20:38:47.962Z,98068.36
2018-05-10T20:41:15.556Z,98070.77
2018-05-10T20:43:43.371Z,98077.02
2018-05-10T20:46:11.003Z,98077.66
2018-05-10T20:48:38.614Z,98076.53
2018-05-10T20:51:06.230Z,98085.59
2018-05-10T20:53:33.829Z,98080.98
2018-05-10T20:56:01.507Z,98091.40
2018-05-10T20:58:29.080Z,98097.83
2018-05-10T21:00:56.688Z,98093.05
2018-05-10T21:03:24.306Z,98096.66
2018-05-10T21:05:51.899Z,98100.91
2018-05-10T21:08:19.536Z,98098.62
2018-05-10T21:10:47.146Z,98109.13
2018-05-10T21:13:14.799Z,98114.59
2018-05-10T21:15:42.391Z,98119.22
2018-05-10T21:18:10.233Z,98126.01
2018-05-10T21:20:37.839Z,98123.62
2018-05-10T21:23:05.448Z,98129.67
2018-05-10T21:25:33.077Z,98138.86
2018-05-10T21:28:00.678Z,98132.55
2018-05-10T21:30:28.302Z,98125.91
2018-05-10T21:32:55.895Z,98140.72
2018-05-10T21:35:23.655Z,98128.35
2018-05-10T21:37:51.252Z,98136.16
2018-05-10T21:40:18.854Z,98136.92
2018-05-10T21:42:46.488Z,98139.70
2018-05-10T21:45:14.098Z,98138.12
2018-05-10T21:47:41.719Z,98142.22
2018-05-10T21:50:09.324Z,98154.02
2018-05-10T21:52:36.946Z,98148.76
2018-05-10T21:55:04.562Z,98150.99
2018-05-10T21:57:32.214Z,98154.97
2018-05-10T21:59:59.877Z,98150.79
2018-05-10T22:02:27.498Z,98151.95
2018-05-10T22:04:55.120Z,98151.74
2018-05-10T22:07:22.712Z,98157.55
2018-05-10T22:09:50.338Z,98161.26
2018-05-10T22:12:17.955Z,98162.93
2018-05-10T22:14:45.598Z,98159.85
2018-05-10T22:17:13.192Z,98173.64
2018-05-10T22:19:40.782Z,98168.75
2018-05-10T22:22:08.403Z,98170.92
2018-05-10T22:24:36.057Z,98170.70
2018-05-10T22:27:03.668Z,98173.77
2018-05-10T22:29:31.288Z,98169.15
2018-05-10T22:31:59.177Z,98176.30
2018-05-10T22:34:26.773Z,98176.66
2018-05-10T22:36:54.378Z,98176.58
2018-05-10T22:39:22.002Z,98181.13
2018-05-10T22:41:49.604Z,98181.84
2018-05-10T22:44:17.252Z,98182.11
2018-05-10T22:46:44.853Z,98182.78
2018-05-10T22:49:12.486Z,98183.55
2018-05-10T22:51:40.126Z,98177.36
2018-05-10T22:54:07.738Z,98186.39
2018-05-10T22:56:35.362Z,98180.14
2018-05-10T22:59:02.964Z,98177.66
2018-05-10T23:01:30.618Z,98171.28
2018-05-10T23:03:58.227Z,98179.92
2018-05-10T23:06:25.857Z,98179.19
2018-05-10T23:08:53.474Z,98180.19
2018-05-10T23:11:21.072Z,98182.39
2018-05-10T23:13:48.735Z,98173.28
2018-05-10T23:16:16.354Z,98177.66
2018-05-10T23:18:43.978Z,98175.55
2018-05-10T23:21:11.569Z,98174.70
2018-05-10T23:23:39.170Z,98178.45
2018-05-10T23:26:06.813Z,98170.39
2018-05-10T23:28:34.402Z,98172.90
2018-05-10T23:31:02.023Z,98176.02
2018-05-10T23:33:29.623Z,98179.95
2018-05-10T23:35:57.223Z,98182.41
2018-05-10T23:38:24.850Z,98178.54
2018-05-10T23:40:52.444Z,98177.77
2018-05-10T23:43:20.067Z,98170.30
2018-05-10T23:45:47.671Z,98170.48
2018-05-10T23:48:15.266Z,98169.44
2018-05-10T23:50:42.886Z,98174.31
2018-05-10T23:53:10.479Z,98177.02
2018-05-10T23:55:38.289Z,98176.49
2018-05-10T23:58:05.948Z,98186.00
